Terminal Aerodrome Forecast
Issued by NWS

Home | Current Version | Previous Version | Text Only | Print | Product List | Glossary On
Versions: 1 2 3 4 5 6 7 8 9 10 11 12 13 14 15 16 17 18 19 20 21 22 23 24 25
000
FTUS41 KRLX 200900 AAB
TAFCKB
TAF AMD
KCKB 200917Z 2009/2106 VRB03KT 4SM BR FEW040
     FM201100 00000KT P6SM BKN035
     FM201300 00000KT 6SM SHRA BR VCTS OVC025CB
     FM201500 VRB03KT P6SM VCTS OVC025CB
     FM201700 23006KT 6SM SHRA BR VCTS BKN025CB
     FM201900 23006KT P6SM VCTS BKN035CB
     FM210300 00000KT 4SM BR BKN100=

USA.gov is the U.S. government's official web portal to all federal, state and local government web resources and services.